sensor_id;sensor_type;location;lat;lon;timestamp;pressure;altitude;pressure_sealevel;temperature;humidity
62544;BME280;48597;49.030;1.822;2023-03-19T00:01:26;100371.44;;;21.73;41.04
62544;BME280;48597;49.030;1.822;2023-03-19T00:03:52;100383.72;;;21.73;41.12
62544;BME280;48597;49.030;1.822;2023-03-19T00:06:17;100375.91;;;21.74;41.07
62544;BME280;48597;49.030;1.822;2023-03-19T00:08:43;100388.19;;;21.74;40.95
62544;BME280;48597;49.030;1.822;2023-03-19T00:11:10;100381.97;;;21.76;40.97
62544;BME280;48597;49.030;1.822;2023-03-19T00:13:38;100382.78;;;21.77;40.82
62544;BME280;48597;49.030;1.822;2023-03-19T00:16:05;100390.13;;;21.78;40.80
62544;BME280;48597;49.030;1.822;2023-03-19T00:18:30;100393.00;;;21.78;40.85
62544;BME280;48597;49.030;1.822;2023-03-19T00:20:56;100386.78;;;21.79;40.75
62544;BME280;48597;49.030;1.822;2023-03-19T00:23:21;100403.19;;;21.79;40.96
62544;BME280;48597;49.030;1.822;2023-03-19T00:25:47;100400.94;;;21.83;40.67
62544;BME280;48597;49.030;1.822;2023-03-19T00:28:13;100403.81;;;21.83;40.74
62544;BME280;48597;49.030;1.822;2023-03-19T00:30:38;100402.53;;;21.84;40.82
62544;BME280;48597;49.030;1.822;2023-03-19T00:33:04;100405.41;;;21.84;40.92
62544;BME280;48597;49.030;1.822;2023-03-19T00:35:29;100409.41;;;21.86;40.76
62544;BME280;48597;49.030;1.822;2023-03-19T00:37:55;100412.59;;;21.88;40.68
62544;BME280;48597;49.030;1.822;2023-03-19T00:40:20;100411.34;;;21.89;40.42
62544;BME280;48597;49.030;1.822;2023-03-19T00:42:46;100403.53;;;21.90;40.64
62544;BME280;48597;49.030;1.822;2023-03-19T00:45:11;100408.31;;;21.93;40.71
62544;BME280;48597;49.030;1.822;2023-03-19T00:47:37;100417.41;;;21.91;40.63
62544;BME280;48597;49.030;1.822;2023-03-19T00:50:04;100418.19;;;21.92;40.81
62544;BME280;48597;49.030;1.822;2023-03-19T00:52:30;100419.78;;;21.93;40.73
62544;BME280;48597;49.030;1.822;2023-03-19T00:54:55;100413.56;;;21.94;40.64
62544;BME280;48597;49.030;1.822;2023-03-19T00:57:21;100420.09;;;21.95;40.58
62544;BME280;48597;49.030;1.822;2023-03-19T00:59:47;100422.47;;;21.96;40.57
62544;BME280;48597;49.030;1.822;2023-03-19T01:02:12;100424.56;;;21.96;40.49
62544;BME280;48597;49.030;1.822;2023-03-19T01:04:38;100431.09;;;21.96;40.70
62544;BME280;48597;49.030;1.822;2023-03-19T01:07:03;100424.09;;;21.97;40.34
62544;BME280;48597;49.030;1.822;2023-03-19T01:09:29;100429.38;;;21.99;40.47
62544;BME280;48597;49.030;1.822;2023-03-19T01:11:55;100422.00;;;21.98;40.68
62544;BME280;48597;49.030;1.822;2023-03-19T01:14:21;100421.56;;;21.99;40.28
62544;BME280;48597;49.030;1.822;2023-03-19T01:16:46;100417.44;;;22.00;40.50
62544;BME280;48597;49.030;1.822;2023-03-19T01:19:11;100425.56;;;22.02;40.48
62544;BME280;48597;49.030;1.822;2023-03-19T01:21:37;100429.22;;;22.02;40.62
62544;BME280;48597;49.030;1.822;2023-03-19T01:24:03;100431.31;;;22.02;40.22
62544;BME280;48597;49.030;1.822;2023-03-19T01:26:28;100424.28;;;22.03;40.50
62544;BME280;48597;49.030;1.822;2023-03-19T01:28:53;100417.28;;;22.04;40.30
62544;BME280;48597;49.030;1.822;2023-03-19T01:31:19;100416.47;;;22.03;40.40
62544;BME280;48597;49.030;1.822;2023-03-19T01:33:44;100416.00;;;22.05;40.53
62544;BME280;48597;49.030;1.822;2023-03-19T01:36:10;100414.75;;;22.06;40.32
62544;BME280;48597;49.030;1.822;2023-03-19T01:38:36;100420.47;;;22.06;40.43
62544;BME280;48597;49.030;1.822;2023-03-19T01:41:02;100425.72;;;22.07;40.46
62544;BME280;48597;49.030;1.822;2023-03-19T01:43:29;100417.09;;;22.07;40.51
62544;BME280;48597;49.030;1.822;2023-03-19T01:46:02;100414.22;;;22.07;40.23
62544;BME280;48597;49.030;1.822;2023-03-19T01:48:37;100415.03;;;22.08;40.37
62544;BME280;48597;49.030;1.822;2023-03-19T01:51:04;100417.91;;;22.08;40.36
62544;BME280;48597;49.030;1.822;2023-03-19T01:53:32;100410.09;;;22.08;40.49
62544;BME280;48597;49.030;1.822;2023-03-19T01:56:05;100406.75;;;22.10;39.96
62544;BME280;48597;49.030;1.822;2023-03-19T01:58:31;100413.28;;;22.10;40.00
62544;BME280;48597;49.030;1.822;2023-03-19T02:00:57;100416.94;;;22.11;40.18
62544;BME280;48597;49.030;1.822;2023-03-19T02:03:23;100419.81;;;22.11;40.10
62544;BME280;48597;49.030;1.822;2023-03-19T02:05:50;100413.28;;;22.10;40.24
62544;BME280;48597;49.030;1.822;2023-03-19T02:08:18;100414.88;;;22.12;40.31
62544;BME280;48597;49.030;1.822;2023-03-19T02:10:46;100415.69;;;22.12;40.17
62544;BME280;48597;49.030;1.822;2023-03-19T02:13:12;100412.81;;;22.12;40.18
62544;BME280;48597;49.030;1.822;2023-03-19T02:15:38;100416.47;;;22.13;39.94
62544;BME280;48597;49.030;1.822;2023-03-19T02:18:04;100408.66;;;22.13;40.22
62544;BME280;48597;49.030;1.822;2023-03-19T02:20:59;100407.41;;;22.14;40.20
62544;BME280;48597;49.030;1.822;2023-03-19T02:24:00;100405.78;;;22.13;40.24
62544;BME280;48597;49.030;1.822;2023-03-19T02:26:28;100411.53;;;22.13;40.01
62544;BME280;48597;49.030;1.822;2023-03-19T02:28:55;100408.19;;;22.15;39.89
62544;BME280;48597;49.030;1.822;2023-03-19T02:31:21;100418.41;;;22.16;40.14
62544;BME280;48597;49.030;1.822;2023-03-19T02:33:57;100414.72;;;22.15;40.12
62544;BME280;48597;49.030;1.822;2023-03-19T02:36:24;100415.53;;;22.16;40.21
62544;BME280;48597;49.030;1.822;2023-03-19T02:38:52;100411.88;;;22.15;40.09
62544;BME280;48597;49.030;1.822;2023-03-19T02:41:19;100416.31;;;22.16;39.87
62544;BME280;48597;49.030;1.822;2023-03-19T02:43:45;100422.06;;;22.16;39.84
62544;BME280;48597;49.030;1.822;2023-03-19T02:46:11;100426.53;;;22.17;40.09
62544;BME280;48597;49.030;1.822;2023-03-19T02:48:37;100422.88;;;22.17;40.00
62544;BME280;48597;49.030;1.822;2023-03-19T02:51:04;100429.41;;;22.17;39.90
62544;BME280;48597;49.030;1.822;2023-03-19T02:53:29;100436.75;;;22.18;39.79
62544;BME280;48597;49.030;1.822;2023-03-19T02:55:55;100431.81;;;22.19;39.97
62544;BME280;48597;49.030;1.822;2023-03-19T02:58:20;100431.00;;;22.18;39.90
62544;BME280;48597;49.030;1.822;2023-03-19T03:00:46;100438.34;;;22.19;40.10
62544;BME280;48597;49.030;1.822;2023-03-19T03:03:11;100432.59;;;22.19;39.78
62544;BME280;48597;49.030;1.822;2023-03-19T03:05:37;100432.59;;;22.19;39.95
62544;BME280;48597;49.030;1.822;2023-03-19T03:08:03;100430.53;;;22.20;40.14
62544;BME280;48597;49.030;1.822;2023-03-19T03:10:30;100427.66;;;22.20;40.03
62544;BME280;48597;49.030;1.822;2023-03-19T03:12:55;100436.28;;;22.20;40.05
62544;BME280;48597;49.030;1.822;2023-03-19T03:15:21;100435.78;;;22.21;39.73
62544;BME280;48597;49.030;1.822;2023-03-19T03:17:46;100433.41;;;22.20;39.71
62544;BME280;48597;49.030;1.822;2023-03-19T03:20:14;100442.00;;;22.20;39.80
62544;BME280;48597;49.030;1.822;2023-03-19T03:22:42;100442.78;;;22.20;39.62
62544;BME280;48597;49.030;1.822;2023-03-19T03:25:09;100435.78;;;22.21;39.79
62544;BME280;48597;49.030;1.822;2023-03-19T03:27:35;100430.03;;;22.21;39.98
62544;BME280;48597;49.030;1.822;2023-03-19T03:30:01;100434.16;;;22.20;39.49
62544;BME280;48597;49.030;1.822;2023-03-19T03:32:27;100437.38;;;22.22;39.94
62544;BME280;48597;49.030;1.822;2023-03-19T03:34:53;100436.56;;;22.22;39.79
62544;BME280;48597;49.030;1.822;2023-03-19T03:37:18;100438.97;;;22.23;39.93
62544;BME280;48597;49.030;1.822;2023-03-19T03:39:44;100433.69;;;22.22;39.67
62544;BME280;48597;49.030;1.822;2023-03-19T03:42:09;100436.09;;;22.23;39.58
62544;BME280;48597;49.030;1.822;2023-03-19T03:44:35;100443.91;;;22.23;39.48
62544;BME280;48597;49.030;1.822;2023-03-19T03:47:00;100454.59;;;22.22;39.94
62544;BME280;48597;49.030;1.822;2023-03-19T03:49:26;100451.25;;;22.24;39.69
62544;BME280;48597;49.030;1.822;2023-03-19T03:51:52;100453.66;;;22.25;39.76
62544;BME280;48597;49.030;1.822;2023-03-19T03:54:17;100452.03;;;22.24;39.55
62544;BME280;48597;49.030;1.822;2023-03-19T03:56:42;100450.44;;;22.23;39.87
62544;BME280;48597;49.030;1.822;2023-03-19T03:59:08;100449.19;;;22.24;39.65
62544;BME280;48597;49.030;1.822;2023-03-19T04:01:34;100452.84;;;22.25;39.79
62544;BME280;48597;49.030;1.822;2023-03-19T04:03:59;100455.72;;;22.25;39.59
62544;BME280;48597;49.030;1.822;2023-03-19T04:06:26;100448.69;;;22.26;39.85
62544;BME280;48597;49.030;1.822;2023-03-19T04:08:52;100429.06;;;22.24;39.45
62544;BME280;48597;49.030;1.822;2023-03-19T04:11:17;100442.16;;;22.25;39.85
62544;BME280;48597;49.030;1.822;2023-03-19T04:13:43;100452.38;;;22.26;39.68
62544;BME280;48597;49.030;1.822;2023-03-19T04:16:09;100440.88;;;22.26;39.54
62544;BME280;48597;49.030;1.822;2023-03-19T04:18:35;100442.47;;;22.27;39.43
62544;BME280;48597;49.030;1.822;2023-03-19T04:21:01;100445.34;;;22.27;39.38
62544;BME280;48597;49.030;1.822;2023-03-19T04:23:28;100451.09;;;22.27;39.46
62544;BME280;48597;49.030;1.822;2023-03-19T04:25:58;100444.88;;;22.29;39.74
62544;BME280;48597;49.030;1.822;2023-03-19T04:28:24;100456.84;;;22.27;39.49
62544;BME280;48597;49.030;1.822;2023-03-19T04:30:49;100454.78;;;22.28;39.72
62544;BME280;48597;49.030;1.822;2023-03-19T04:33:15;100469.94;;;22.28;39.32
62544;BME280;48597;49.030;1.822;2023-03-19T04:35:41;100467.06;;;22.28;39.31
62544;BME280;48597;49.030;1.822;2023-03-19T04:38:07;100476.47;;;22.29;39.42
62544;BME280;48597;49.030;1.822;2023-03-19T04:40:33;100466.25;;;22.28;39.37
62544;BME280;48597;49.030;1.822;2023-03-19T04:42:58;100472.78;;;22.28;39.31
62544;BME280;48597;49.030;1.822;2023-03-19T04:45:24;100474.41;;;22.29;39.58
62544;BME280;48597;49.030;1.822;2023-03-19T04:47:50;100474.41;;;22.29;39.28
62544;BME280;48597;49.030;1.822;2023-03-19T04:50:15;100471.53;;;22.29;39.43
62544;BME280;48597;49.030;1.822;2023-03-19T04:52:41;100465.78;;;22.29;39.44
62544;BME280;48597;49.030;1.822;2023-03-19T04:55:07;100477.25;;;22.29;39.40
62544;BME280;48597;49.030;1.822;2023-03-19T04:57:33;100484.59;;;22.30;39.50
62544;BME280;48597;49.030;1.822;2023-03-19T04:59:58;100485.41;;;22.31;39.39
62544;BME280;48597;49.030;1.822;2023-03-19T05:02:25;100493.53;;;22.32;39.31
62544;BME280;48597;49.030;1.822;2023-03-19T05:04:51;100502.63;;;22.31;39.46
62544;BME280;48597;49.030;1.822;2023-03-19T05:07:17;100490.34;;;22.30;39.40
62544;BME280;48597;49.030;1.822;2023-03-19T05:09:43;100497.69;;;22.31;39.22
62544;BME280;48597;49.030;1.822;2023-03-19T05:12:11;100494.81;;;22.31;39.09
62544;BME280;48597;49.030;1.822;2023-03-19T05:14:37;100489.06;;;22.31;39.33
62544;BME280;48597;49.030;1.822;2023-03-19T05:17:02;100488.28;;;22.31;39.17
62544;BME280;48597;49.030;1.822;2023-03-19T05:19:27;100500.56;;;22.31;39.37
62544;BME280;48597;49.030;1.822;2023-03-19T05:21:53;100495.28;;;22.30;39.24
62544;BME280;48597;49.030;1.822;2023-03-19T05:24:18;100491.94;;;22.31;39.23
62544;BME280;48597;49.030;1.822;2023-03-19T05:26:44;100504.22;;;22.32;39.06
62544;BME280;48597;49.030;1.822;2023-03-19T05:29:10;100505.50;;;22.31;39.02
62544;BME280;48597;49.030;1.822;2023-03-19T05:31:37;100512.03;;;22.31;38.98
62544;BME280;48597;49.030;1.822;2023-03-19T05:34:03;100515.72;;;22.32;39.38
62544;BME280;48597;49.030;1.822;2023-03-19T05:36:28;100519.06;;;22.30;38.88
62544;BME280;48597;49.030;1.822;2023-03-19T05:38:54;100515.38;;;22.30;39.15
62544;BME280;48597;49.030;1.822;2023-03-19T05:41:20;100521.13;;;22.30;39.15
62544;BME280;48597;49.030;1.822;2023-03-19T05:43:45;100530.53;;;22.30;39.26
62544;BME280;48597;49.030;1.822;2023-03-19T05:46:10;100535.50;;;22.30;39.08
62544;BME280;48597;49.030;1.822;2023-03-19T05:48:36;100534.69;;;22.29;39.34
62544;BME280;48597;49.030;1.822;2023-03-19T05:51:01;100539.16;;;22.30;39.15
62544;BME280;48597;49.030;1.822;2023-03-19T05:53:27;100540.44;;;22.29;39.00
62544;BME280;48597;49.030;1.822;2023-03-19T05:55:52;100539.63;;;22.29;38.87
62544;BME280;48597;49.030;1.822;2023-03-19T05:58:18;100538.84;;;22.28;39.10
62544;BME280;48597;49.030;1.822;2023-03-19T06:00:43;100551.59;;;22.27;39.07
62544;BME280;48597;49.030;1.822;2023-03-19T06:03:08;100554.47;;;22.27;39.15
62544;BME280;48597;49.030;1.822;2023-03-19T06:05:34;100554.78;;;22.29;38.86
62544;BME280;48597;49.030;1.822;2023-03-19T06:07:59;100559.41;;;22.27;39.17
62544;BME280;48597;49.030;1.822;2023-03-19T06:10:25;100565.94;;;22.27;39.19
62544;BME280;48597;49.030;1.822;2023-03-19T06:12:51;100565.94;;;22.27;39.19
62544;BME280;48597;49.030;1.822;2023-03-19T06:15:16;100581.56;;;22.26;38.91
62544;BME280;48597;49.030;1.822;2023-03-19T06:17:42;100573.75;;;22.27;39.00
62544;BME280;48597;49.030;1.822;2023-03-19T06:20:10;100582.38;;;22.27;39.11
62544;BME280;48597;49.030;1.822;2023-03-19T06:22:37;100589.38;;;22.26;38.78
62544;BME280;48597;49.030;1.822;2023-03-19T06:25:03;100590.66;;;22.25;38.88
62544;BME280;48597;49.030;1.822;2023-03-19T06:27:28;100582.84;;;22.25;38.80
62544;BME280;48597;49.030;1.822;2023-03-19T06:29:54;100583.31;;;22.24;39.06
62544;BME280;48597;49.030;1.822;2023-03-19T06:32:19;100581.25;;;22.24;39.03
62544;BME280;48597;49.030;1.822;2023-03-19T06:34:45;100589.84;;;22.24;39.02
62544;BME280;48597;49.030;1.822;2023-03-19T06:37:10;100585.38;;;22.23;38.86
62544;BME280;48597;49.030;1.822;2023-03-19T06:39:36;100580.44;;;22.24;38.89
62544;BME280;48597;49.030;1.822;2023-03-19T06:42:02;100584.59;;;22.23;39.02
62544;BME280;48597;49.030;1.822;2023-03-19T06:44:27;100588.25;;;22.23;38.73
62544;BME280;48597;49.030;1.822;2023-03-19T06:46:53;100593.19;;;22.23;38.96
62544;BME280;48597;49.030;1.822;2023-03-19T06:49:18;100593.19;;;22.23;38.70
62544;BME280;48597;49.030;1.822;2023-03-19T06:51:43;100594.47;;;22.22;38.80
62544;BME280;48597;49.030;1.822;2023-03-19T06:54:09;100590.78;;;22.21;38.99
62544;BME280;48597;49.030;1.822;2023-03-19T06:56:35;100590.78;;;22.21;39.03
62544;BME280;48597;49.030;1.822;2023-03-19T06:59:00;100591.59;;;22.22;38.81
62544;BME280;48597;49.030;1.822;2023-03-19T07:01:26;100590.78;;;22.21;38.83
62544;BME280;48597;49.030;1.822;2023-03-19T07:03:51;100591.59;;;22.22;38.97
62544;BME280;48597;49.030;1.822;2023-03-19T07:06:17;100593.66;;;22.21;39.07
62544;BME280;48597;49.030;1.822;2023-03-19T07:08:42;100603.88;;;22.22;38.78
62544;BME280;48597;49.030;1.822;2023-03-19T07:11:11;100602.28;;;22.21;38.82
62544;BME280;48597;49.030;1.822;2023-03-19T07:13:36;100601.00;;;22.22;38.89
62544;BME280;48597;49.030;1.822;2023-03-19T07:16:02;100616.63;;;22.21;38.66
62544;BME280;48597;49.030;1.822;2023-03-19T07:18:28;100608.53;;;22.20;39.16
62544;BME280;48597;49.030;1.822;2023-03-19T07:20:53;100616.63;;;22.21;38.71
62544;BME280;48597;49.030;1.822;2023-03-19T07:23:19;100628.63;;;22.20;38.93
62544;BME280;48597;49.030;1.822;2023-03-19T07:25:45;100625.75;;;22.20;39.04
62544;BME280;48597;49.030;1.822;2023-03-19T07:28:12;100627.81;;;22.19;38.83
62544;BME280;48597;49.030;1.822;2023-03-19T07:30:37;100622.88;;;22.20;39.04
62544;BME280;48597;49.030;1.822;2023-03-19T07:33:03;100627.81;;;22.19;39.72
62544;BME280;48597;49.030;1.822;2023-03-19T07:35:28;100626.22;;;22.18;39.88
62544;BME280;48597;49.030;1.822;2023-03-19T07:37:54;100629.09;;;22.18;39.87
62544;BME280;48597;49.030;1.822;2023-03-19T07:40:20;100628.28;;;22.18;39.89
62544;BME280;48597;49.030;1.822;2023-03-19T07:42:46;100636.91;;;22.18;39.97
62544;BME280;48597;49.030;1.822;2023-03-19T07:45:11;100636.09;;;22.17;40.09
62544;BME280;48597;49.030;1.822;2023-03-19T07:47:37;100641.03;;;22.17;40.45
62544;BME280;48597;49.030;1.822;2023-03-19T07:50:02;100647.25;;;22.15;40.13
62544;BME280;48597;49.030;1.822;2023-03-19T07:52:28;100644.38;;;22.15;40.29
62544;BME280;48597;49.030;1.822;2023-03-19T07:54:53;100640.72;;;22.15;40.61
62544;BME280;48597;49.030;1.822;2023-03-19T07:57:19;100640.38;;;22.13;40.70
62544;BME280;48597;49.030;1.822;2023-03-19T07:59:45;100648.53;;;22.14;41.12
62544;BME280;48597;49.030;1.822;2023-03-19T08:02:11;100637.50;;;22.13;41.24
62544;BME280;48597;49.030;1.822;2023-03-19T08:04:37;100638.31;;;22.13;41.36
62544;BME280;48597;49.030;1.822;2023-03-19T08:07:02;100649.00;;;22.13;40.91
62544;BME280;48597;49.030;1.822;2023-03-19T08:09:28;100650.25;;;22.12;41.12
62544;BME280;48597;49.030;1.822;2023-03-19T08:11:53;100650.25;;;22.12;41.10
62544;BME280;48597;49.030;1.822;2023-03-19T08:14:19;100646.59;;;22.11;41.18
62544;BME280;48597;49.030;1.822;2023-03-19T08:16:47;100656.47;;;22.10;41.13
62544;BME280;48597;49.030;1.822;2023-03-19T08:19:13;100655.66;;;22.09;41.39
62544;BME280;48597;49.030;1.822;2023-03-19T08:21:38;100658.53;;;22.09;41.18
62544;BME280;48597;49.030;1.822;2023-03-19T08:24:04;100662.69;;;22.08;41.01
62544;BME280;48597;49.030;1.822;2023-03-19T08:26:29;100661.88;;;22.08;41.42
62544;BME280;48597;49.030;1.822;2023-03-19T08:28:57;100664.75;;;22.08;41.29
62544;BME280;48597;49.030;1.822;2023-03-19T08:31:22;100668.91;;;22.07;41.37
62544;BME280;48597;49.030;1.822;2023-03-19T08:33:48;100674.66;;;22.07;41.05
62544;BME280;48597;49.030;1.822;2023-03-19T08:36:14;100676.72;;;22.06;41.24
62544;BME280;48597;49.030;1.822;2023-03-19T08:38:39;100682.94;;;22.05;41.22
62544;BME280;48597;49.030;1.822;2023-03-19T08:41:05;100678.00;;;22.05;41.22
62544;BME280;48597;49.030;1.822;2023-03-19T08:43:32;100680.06;;;22.05;41.32
62544;BME280;48597;49.030;1.822;2023-03-19T08:45:59;100684.19;;;22.04;41.29
62544;BME280;48597;49.030;1.822;2023-03-19T08:48:25;100676.41;;;22.04;41.08
62544;BME280;48597;49.030;1.822;2023-03-19T08:50:55;100682.94;;;22.05;41.26
62544;BME280;48597;49.030;1.822;2023-03-19T08:53:22;100682.59;;;22.03;41.42
62544;BME280;48597;49.030;1.822;2023-03-19T08:55:52;100696.97;;;22.03;41.02
62544;BME280;48597;49.030;1.822;2023-03-19T08:58:18;100685.13;;;22.01;41.40
62544;BME280;48597;49.030;1.822;2023-03-19T09:00:43;100695.34;;;22.02;41.16
62544;BME280;48597;49.030;1.822;2023-03-19T09:03:09;100691.69;;;22.01;41.47
62544;BME280;48597;49.030;1.822;2023-03-19T09:05:34;100690.88;;;22.01;41.32
62544;BME280;48597;49.030;1.822;2023-03-19T09:08:00;100711.44;;;21.99;41.34
62544;BME280;48597;49.030;1.822;2023-03-19T09:10:26;100706.50;;;22.00;41.47
62544;BME280;48597;49.030;1.822;2023-03-19T09:12:51;100699.16;;;21.99;41.25
62544;BME280;48597;49.030;1.822;2023-03-19T09:15:17;100706.94;;;21.98;41.55
62544;BME280;48597;49.030;1.822;2023-03-19T09:17:43;100696.28;;;21.99;41.25
62544;BME280;48597;49.030;1.822;2023-03-19T09:20:09;100709.81;;;21.98;41.40
62544;BME280;48597;49.030;1.822;2023-03-19T09:22:34;100709.00;;;21.98;41.25
62544;BME280;48597;49.030;1.822;2023-03-19T09:25:00;100711.88;;;21.98;41.12
62544;BME280;48597;49.030;1.822;2023-03-19T09:27:26;100712.81;;;21.95;41.08
62544;BME280;48597;49.030;1.822;2023-03-19T09:29:53;100720.94;;;21.96;41.36
62544;BME280;48597;49.030;1.822;2023-03-19T09:32:18;100725.09;;;21.95;41.01
62544;BME280;48597;49.030;1.822;2023-03-19T09:34:43;100729.22;;;21.94;41.42
62544;BME280;48597;49.030;1.822;2023-03-19T09:37:09;100729.72;;;21.93;41.44
62544;BME280;48597;49.030;1.822;2023-03-19T09:39:36;100725.25;;;21.92;41.19
62544;BME280;48597;49.030;1.822;2023-03-19T09:44:57;100736.38;;;21.90;41.63
62544;BME280;48597;49.030;1.822;2023-03-19T09:49:51;100742.94;;;21.90;41.84
62544;BME280;48597;49.030;1.822;2023-03-19T09:57:49;100754.53;;;21.87;41.41
62544;BME280;48597;49.030;1.822;2023-03-19T10:00:22;100751.19;;;21.88;41.61
62544;BME280;48597;49.030;1.822;2023-03-19T10:03:05;100754.53;;;21.87;41.25
62544;BME280;48597;49.030;1.822;2023-03-19T10:05:49;100763.59;;;21.85;41.80
62544;BME280;48597;49.030;1.822;2023-03-19T10:16:21;100794.03;;;21.83;41.50
62544;BME280;48597;49.030;1.822;2023-03-19T10:18:49;100796.09;;;21.82;41.89
62544;BME280;48597;49.030;1.822;2023-03-19T10:21:24;100799.78;;;21.83;41.57
62544;BME280;48597;49.030;1.822;2023-03-19T10:26:23;100807.25;;;21.80;41.84
62544;BME280;48597;49.030;1.822;2023-03-19T10:29:08;100802.78;;;21.79;41.55
62544;BME280;48597;49.030;1.822;2023-03-19T10:34:31;100807.72;;;21.79;41.77
62544;BME280;48597;49.030;1.822;2023-03-19T10:37:04;100813.94;;;21.77;41.94
62544;BME280;48597;49.030;1.822;2023-03-19T10:39:33;100803.25;;;21.78;42.05
62544;BME280;48597;49.030;1.822;2023-03-19T10:44:49;100806.59;;;21.76;41.58
62544;BME280;48597;49.030;1.822;2023-03-19T10:47:16;100800.84;;;21.76;42.10
62544;BME280;48597;49.030;1.822;2023-03-19T10:49:43;100808.66;;;21.75;42.36
62544;BME280;48597;49.030;1.822;2023-03-19T10:52:26;100805.31;;;21.77;42.36
62544;BME280;48597;49.030;1.822;2023-03-19T10:55:02;100806.59;;;21.76;42.27
62544;BME280;48597;49.030;1.822;2023-03-19T10:57:29;100807.03;;;21.74;42.56
62544;BME280;48597;49.030;1.822;2023-03-19T11:02:46;100810.25;;;21.77;42.23
62544;BME280;48597;49.030;1.822;2023-03-19T11:07:37;100823.00;;;21.75;42.21
62544;BME280;48597;49.030;1.822;2023-03-19T11:10:03;100807.84;;;21.75;42.86
62544;BME280;48597;49.030;1.822;2023-03-19T11:12:33;100822.19;;;21.75;42.63
62544;BME280;48597;49.030;1.822;2023-03-19T11:14:59;100820.13;;;21.75;42.72
62544;BME280;48597;49.030;1.822;2023-03-19T11:17:46;100832.06;;;21.74;42.32
62544;BME280;48597;49.030;1.822;2023-03-19T11:20:22;100829.19;;;21.74;42.38
62544;BME280;48597;49.030;1.822;2023-03-19T11:22:49;100824.72;;;21.73;42.63
62544;BME280;48597;49.030;1.822;2023-03-19T11:25:25;100820.25;;;21.72;42.39
62544;BME280;48597;49.030;1.822;2023-03-19T11:28:11;100818.97;;;21.73;42.47
62544;BME280;48597;49.030;1.822;2023-03-19T11:39:27;100833.00;;;21.71;42.66
62544;BME280;48597;49.030;1.822;2023-03-19T11:45:12;100847.78;;;21.69;42.65
62544;BME280;48597;49.030;1.822;2023-03-19T11:59:08;100858.16;;;21.67;42.41
62544;BME280;48597;49.030;1.822;2023-03-19T12:04:44;100860.22;;;21.66;42.65
62544;BME280;48597;49.030;1.822;2023-03-19T12:24:02;100870.53;;;21.64;42.87
62544;BME280;48597;49.030;1.822;2023-03-19T12:29:28;100886.16;;;21.63;42.96
62544;BME280;48597;49.030;1.822;2023-03-19T12:34:51;100892.69;;;21.63;42.68
62544;BME280;48597;49.030;1.822;2023-03-19T12:37:28;100902.56;;;21.62;43.15
62544;BME280;48597;49.030;1.822;2023-03-19T12:42:36;100915.28;;;21.61;43.07
62544;BME280;48597;49.030;1.822;2023-03-19T12:45:02;100913.69;;;21.60;43.06
62544;BME280;48597;49.030;1.822;2023-03-19T12:47:34;100922.28;;;21.60;42.81
62544;BME280;48597;49.030;1.822;2023-03-19T12:50:08;100930.09;;;21.60;43.02
62544;BME280;48597;49.030;1.822;2023-03-19T12:52:40;100944.09;;;21.58;42.87
62544;BME280;48597;49.030;1.822;2023-03-19T13:00:15;100930.22;;;21.56;42.71
62544;BME280;48597;49.030;1.822;2023-03-19T13:05:42;100927.81;;;21.55;42.41
62544;BME280;48597;49.030;1.822;2023-03-19T13:08:31;100934.34;;;21.55;42.81
62544;BME280;48597;49.030;1.822;2023-03-19T13:11:01;100911.88;;;21.54;42.61
62544;BME280;48597;49.030;1.822;2023-03-19T13:14:09;100912.69;;;21.54;42.50
62544;BME280;48597;49.030;1.822;2023-03-19T13:17:05;100913.94;;;21.53;42.19
62544;BME280;48597;49.030;1.822;2023-03-19T13:19:45;100911.88;;;21.54;42.47
62544;BME280;48597;49.030;1.822;2023-03-19T13:22:25;100904.88;;;21.55;42.42
62544;BME280;48597;49.030;1.822;2023-03-19T13:24:53;100907.75;;;21.55;42.50
62544;BME280;48597;49.030;1.822;2023-03-19T13:27:29;100893.41;;;21.55;42.19
62544;BME280;48597;49.030;1.822;2023-03-19T13:32:43;100894.69;;;21.54;42.61
62544;BME280;48597;49.030;1.822;2023-03-19T13:38:17;100904.53;;;21.53;42.61
62544;BME280;48597;49.030;1.822;2023-03-19T13:40:49;100906.94;;;21.54;42.40
62544;BME280;48597;49.030;1.822;2023-03-19T13:45:51;100909.81;;;21.54;42.57
62544;BME280;48597;49.030;1.822;2023-03-19T13:53:42;100902.78;;;21.55;42.96
62544;BME280;48597;49.030;1.822;2023-03-19T13:56:16;100901.53;;;21.56;42.77
62544;BME280;48597;49.030;1.822;2023-03-19T13:58:49;100895.78;;;21.56;42.96
62544;BME280;48597;49.030;1.822;2023-03-19T14:04:06;100901.53;;;21.56;42.85
62544;BME280;48597;49.030;1.822;2023-03-19T14:09:39;100909.31;;;21.56;42.70
62544;BME280;48597;49.030;1.822;2023-03-19T14:17:24;100905.66;;;21.55;42.99
62544;BME280;48597;49.030;1.822;2023-03-19T14:19:51;100901.66;;;21.53;42.70
62544;BME280;48597;49.030;1.822;2023-03-19T14:25:18;100915.56;;;21.54;42.75
62544;BME280;48597;49.030;1.822;2023-03-19T14:27:46;100911.53;;;21.52;42.75
62544;BME280;48597;49.030;1.822;2023-03-19T14:30:25;100920.94;;;21.52;42.92
62544;BME280;48597;49.030;1.822;2023-03-19T14:32:54;100920.59;;;21.50;42.57
62544;BME280;48597;49.030;1.822;2023-03-19T14:35:24;100916.94;;;21.50;42.87
62544;BME280;48597;49.030;1.822;2023-03-19T14:37:50;100925.53;;;21.50;42.71
62544;BME280;48597;49.030;1.822;2023-03-19T14:40:35;100920.59;;;21.50;42.86
62544;BME280;48597;49.030;1.822;2023-03-19T14:43:21;100927.59;;;21.49;42.58
62544;BME280;48597;49.030;1.822;2023-03-19T14:53:58;100931.38;;;21.46;42.46
62544;BME280;48597;49.030;1.822;2023-03-19T14:56:31;100932.97;;;21.47;42.57
62544;BME280;48597;49.030;1.822;2023-03-19T14:58:57;100931.50;;;21.43;42.55
62544;BME280;48597;49.030;1.822;2023-03-19T15:01:27;100931.03;;;21.44;42.69